Hit Tracker is now ESPN Home Run Tracker! Hit Tracker founder Greg Rybarczyk is now collaborating with the ESPN Stats & Information Group to continue tracking all MLB home runs, and helping baseball fans know "How Far It Really Went!™" Please credit any information on this site to ESPN Stats & Information Group. For more information and analysis on home runs, please contact founder Greg Rybarczyk. E-Mail ESPN Home Run Tracker
Main Page | Ballparks | Park Overlays | Glossary | Highlight Homers | Feedback | Bio | 3 Types of HR's | AAA Home Run Derby Last Updated: July 27, 2016, 9:33 pm PST
If you want to know "How Far It Really Went!", then you've come to the right place! Welcome to the ESPN Home Run Tracker, where you can find accurate, transparently verifiable distances for every home run hit in MLB games. Please also check out the ESPN MLB Scoreboard throughout the 2016 season! Contact us at grybar@hittrackeronline.com.
Season:
Ballpark detail for Tropicana Field
Ballpark # of Home Runs HR per game Avg.
True
Distance
Avg.
Speed
Off
Bat
Avg.
Std.
Dist.
Tropicana Field 117 2.39 403.6 105.2 403.4

Scatter Plot of Home Runs Tropicana Field
 Overlay Ballpark:
Without range rings   With range rings

2016 Season Home Runs for Tropicana Field
Click headers to sort
Date Video Path Hitter Hitter
Team
Pitcher Pitcher
Team
INN Ballpark Type/
Luck
True
Dist.
Speed
Off
Bat
Elev.
Angle
Horiz.
Angle
Apex Impact Due To: Std.
Dist.
#
Parks
Wind Temp. Alt. ^
06/15/16 Video View Cruz, Nelson SEA Smyly, Drew TB 4 Tropicana Fi... JE 407 109.9 21.2 102.6 61 0 0 -1 408 30
04/30/16 Video View Pillar, Kevin TOR Romero, Enny TB 7 Tropicana Fi... PL 435 106.3 27.0 96.4 100 0 1 0 435 30
04/16/16 Video View Guyer, Brandon TB Danks, John CHW 3 Tropicana Fi... JE 341 101.1 24.1 126.4 53 0 0 0 341 4
04/16/16 Video View Miller, Brad TB Danks, John CHW 4 Tropicana Fi... ND 443 109.5 26.2 78.8 96 0 0 0 442 29
04/16/16 Video View Jennings, Desmond TB Putnam, Zach CHW 8 Tropicana Fi... PL 382 100.4 31.8 112.2 101 0 0 0 382 30
04/16/16 Video N/A Lawrie, Brett CHW Geltz, Steven TB 7 Tropicana Fi... 0 0.0 0.0 0.0 0 0 0 0 0 0
04/12/16 Video View Lindor, Francisco CLE Moore, Matt TB 4 Tropicana Fi... JE 420 102.9 27.1 91.4 96 0 1 0 419 25
04/12/16 Video View Forsythe, Logan TB Kluber, Corey CLE 8 Tropicana Fi... PL 428 108.9 23.5 100.7 77 0 0 0 428 30
04/12/16 Video View Longoria, Evan TB Allen, Cody CLE 8 Tropicana Fi... PL 393 102.3 34.6 104.1 131 0 0 0 393 30
04/13/16 Video View Kipnis, Jason CLE Ramirez, Erasmo TB 8 Tropicana Fi... ND 417 107.5 32.1 69.1 121 0 0 0 416 30
04/14/16 Video View Byrd, Marlon CLE Archer, Chris TB 6 Tropicana Fi... PL 432 105.7 27.4 96.4 101 0 0 0 432 30
04/14/16 Video View Davis, Rajai CLE Geltz, Steven TB 6 Tropicana Fi... PL 407 102.9 27.6 102.3 91 0 0 0 407 30
04/14/16 Video View Ramirez, Jose CLE Farquhar, Danny TB 9 Tropicana Fi... JE 364 101.0 24.5 68.9 62 0 0 0 365 9
04/03/16 Video View Tulowitzki, Troy TOR Webb, Ryan TB 8 Tropicana Fi... PL 400 105.2 25.5 108.3 76 0 0 0 400 30
04/03/16 Video View Dickerson, Corey TB Stroman, Marcus TOR 9 Tropicana Fi... PL 385 104.8 24.3 69.1 66 0 0 0 385 28
04/04/16 Video View Souza Jr., Steven TB Dickey, R.A. TOR 2 Tropicana Fi... PL 379 98.9 31.3 70.7 98 0 0 0 379 26
04/04/16 Video View Thole, Josh TOR Smyly, Drew TB 3 Tropicana Fi... JE 399 104.6 22.4 81.4 65 0 0 0 398 14
04/04/16 Video View Saunders, Michael TOR Smyly, Drew TB 4 Tropicana Fi... JE 419 103.1 26.9 93.0 95 0 1 0 419 26
04/04/16 Video View Donaldson, Josh TOR Smyly, Drew TB 5 Tropicana Fi... JE 395 111.3 20.9 109.0 55 0 0 0 395 30
04/05/16 Video View Dickerson, Corey TB Sanchez, Aaron TOR 4 Tropicana Fi... ND 453 112.0 28.7 75.3 115 0 0 0 452 30
04/05/16 Video View Forsythe, Logan TB Cecil, Brett TOR 8 Tropicana Fi... PL 378 99.9 27.0 72.3 76 0 0 0 378 23
04/06/16 Video View Donaldson, Josh TOR Moore, Matt TB 3 Tropicana Fi... PL 385 102.4 35.1 109.7 128 0 1 0 385 30
04/06/16 Video View Souza Jr., Steven TB Happ, J.A. TOR 6 Tropicana Fi... JE 414 101.8 28.2 88.6 100 0 0 0 414 23
04/06/16 Video View Souza Jr., Steven TB Leon, Arnold TOR 8 Tropicana Fi... PL 452 111.3 23.6 96.9 86 0 0 0 452 30
04/26/16 Video View Kiermaier, Kevin TB Jimenez, Ubaldo BAL 6 Tropicana Fi... PL 364 96.5 32.5 69.1 98 0 0 0 364 19
04/27/16 Video View Rickard, Joey BAL Moore, Matt TB 5 Tropicana Fi... ND 421 106.7 26.5 104.4 89 0 0 0 421 30
04/29/16 Video View Saunders, Michael TOR Smyly, Drew TB 3 Tropicana Fi... JE 418 105.0 23.4 85.8 76 0 0 0 417 23
04/29/16 Video View Saunders, Michael TOR Eveland, Dana TB 8 Tropicana Fi... JE 393 99.0 31.1 80.8 106 0 0 0 393 18
04/29/16 Video View Miller, Brad TB Storen, Drew TOR 8 Tropicana Fi... ND 435 107.8 27.2 78.4 99 0 1 0 435 29
04/29/16 Video View Goins, Ryan TOR Marinez, Jhan TB 9 Tropicana Fi... JE 358 95.7 33.6 112.4 101 0 1 0 357 12
04/29/16 Video N/A Donaldson, Josh TOR Smyly, Drew TB 6 Tropicana Fi... ND 0 0.0 0.0 0.0 0 0 0 0 0 0
04/30/16 Video View Bautista, Jose TOR Archer, Chris TB 3 Tropicana Fi... JE 332 94.4 28.8 124.0 66 0 0 0 332 1
04/30/16 Video View Longoria, Evan TB Happ, J.A. TOR 6 Tropicana Fi... JE 364 98.9 25.6 71.3 66 0 0 0 364 1
04/30/16 Video View Forsythe, Logan TB Happ, J.A. TOR 7 Tropicana Fi... PL 427 105.7 23.9 88.8 82 0 0 0 427 27
05/01/16 Video View Donaldson, Josh TOR Odorizzi, Jake TB 4 Tropicana Fi... PL 396 110.7 21.1 107.8 56 0 0 0 396 30
05/01/16 Video View Longoria, Evan TB Stroman, Marcus TOR 6 Tropicana Fi... ND 432 108.8 24.8 101.7 84 0 0 0 432 30
05/01/16 Video View Tulowitzki, Troy TOR Colome, Alex TB 9 Tropicana Fi... PL 414 103.9 29.3 103.0 103 0 0 0 414 30
05/03/16 Video View Pederson, Joc LAD Moore, Matt TB 2 Tropicana Fi... PL 438 110.7 20.7 87.3 70 0 0 0 437 27
05/03/16 Video View Casali, Curt TB Kazmir, Scott LAD 4 Tropicana Fi... PL 393 104.3 34.3 112.7 125 0 1 0 393 30
05/03/16 Video View Pearce, Steve TB Kazmir, Scott LAD 5 Tropicana Fi... PL 407 105.6 26.3 108.2 82 0 0 0 407 30
05/03/16 Video View Puig, Yasiel LAD Webb, Ryan TB 9 Tropicana Fi... ND 410 107.3 31.9 116.8 111 0 1 0 410 30
05/03/16 Video N/A Thompson, Trayce LAD Moore, Matt TB 2 Tropicana Fi... 0 0.0 0.0 0.0 0 0 0 0 0 0
05/04/16 Video View Guyer, Brandon TB Wood, Alex LAD 1 Tropicana Fi... PL 416 104.1 30.4 102.2 111 0 0 0 416 30
05/04/16 Video View Souza Jr., Steven TB Wood, Alex LAD 4 Tropicana Fi... PL 395 104.8 28.4 116.6 84 0 0 0 395 30
05/04/16 Video View Pearce, Steve TB Wood, Alex LAD 6 Tropicana Fi... PL 381 102.4 35.4 112.5 127 0 1 0 380 30
05/04/16 Video View Casali, Curt TB Baez, Pedro LAD 7 Tropicana Fi... PL 384 99.7 31.2 108.7 99 0 1 0 383 30
05/13/16 Video View Davis, Khris OAK Odorizzi, Jake TB 1 Tropicana Fi... ND 405 109.4 26.7 122.4 77 0 0 0 404 30
05/13/16 Video View Semien, Marcus OAK Odorizzi, Jake TB 4 Tropicana Fi... JE 383 109.7 20.9 110.0 53 0 0 0 383 21
05/13/16 Video View Valencia, Danny OAK Eveland, Dana TB 6 Tropicana Fi... PL 372 97.6 29.6 71.5 86 0 0 0 372 20
05/13/16 Video View Valencia, Danny OAK Odorizzi, Jake TB 1 Tropicana Fi... ND 410 106.8 30.9 115.4 105 0 1 0 410 30
05/14/16 Video View Miller, Brad TB Graveman, Kendall OAK 3 Tropicana Fi... PL 412 110.2 20.6 80.2 61 0 0 0 412 28
05/15/16 Video View Coghlan, Chris OAK Ramirez, Erasmo TB 7 Tropicana Fi... JE 384 98.4 29.7 103.6 93 0 0 0 383 18
05/15/16 Video View Valencia, Danny OAK Geltz, Steven TB 9 Tropicana Fi... PL 434 106.6 28.9 99.3 111 0 0 0 434 30
05/15/16 Video View Longoria, Evan TB Gray, Sonny OAK 5 Tropicana Fi... PL 417 106.2 34.7 97.4 149 0 0 0 416 30
05/15/16 Video View Valencia, Danny OAK Moore, Matt TB 5 Tropicana Fi... ND 429 112.8 23.8 109.5 74 0 0 0 429 30
05/15/16 Video View Guyer, Brandon TB Gray, Sonny OAK 2 Tropicana Fi... PL 382 103.2 33.7 110.2 124 0 -12 0 393 30
05/15/16 Video View Guyer, Brandon TB Gray, Sonny OAK 1 Tropicana Fi... PL 410 102.9 27.9 100.9 94 0 0 0 410 30
05/15/16 Video View Valencia, Danny OAK Moore, Matt TB 1 Tropicana Fi... ND 425 113.4 24.7 115.8 75 0 0 0 425 30
05/25/16 Video View Morrison, Logan TB Nicolino, Justin MIA 6 Tropicana Fi... ND 416 106.9 31.7 70.0 117 0 0 0 416 30
05/26/16 Video View Hechavarria, Adeiny MIA Smyly, Drew TB 2 Tropicana Fi... PL 359 96.7 33.3 116.3 97 0 0 0 358 22
05/26/16 Video View Johnson, Chris MIA Smyly, Drew TB 3 Tropicana Fi... PL 398 104.3 27.4 111.7 82 0 0 0 397 30
05/26/16 Video View Guyer, Brandon TB Fernandez, Jose MIA 3 Tropicana Fi... ND 399 104.5 29.6 114.8 93 0 0 0 399 30
05/27/16 Video View Rodriguez, Alex NYY Archer, Chris TB 6 Tropicana Fi... PL 442 108.2 24.3 93.9 88 0 0 0 441 30
05/27/16 Video View Beltran, Carlos NYY Archer, Chris TB 8 Tropicana Fi... JE 378 105.2 22.6 71.4 58 0 0 0 378 18
05/27/16 Video View Pearce, Steve TB Yates, Kirby NYY 9 Tropicana Fi... JE 414 102.6 29.2 97.8 105 0 0 0 414 30
05/28/16 Video View Longoria, Evan TB Pineda, Michael NYY 2 Tropicana Fi... PL 438 108.6 23.7 96.4 83 0 0 0 437 30
05/28/16 Video View Beltran, Carlos NYY Moore, Matt TB 4 Tropicana Fi... ND 384 103.4 30.0 122.8 86 0 0 0 383 30
05/28/16 Video View Conger, Hank TB Cessa, Luis NYY 5 Tropicana Fi... PL 377 100.0 33.6 66.8 109 0 0 0 376 29
05/29/16 Video View Castro, Starlin NYY Odorizzi, Jake TB 7 Tropicana Fi... JE 433 111.8 19.8 94.1 64 0 0 0 432 28
06/10/16 Video View Castro, Jason HOU Andriese, Matt TB 6 Tropicana Fi... PL 385 100.6 27.4 73.0 81 0 0 0 385 26
06/11/16 Video View Miller, Brad TB Fiers, Mike HOU 3 Tropicana Fi... PL 399 107.9 21.4 77.5 60 0 0 0 399 24
06/11/16 Video View Gomez, Carlos HOU Archer, Chris TB 7 Tropicana Fi... PL 438 107.2 24.3 91.9 88 0 0 0 438 30
06/11/16 Video View Valbuena, Luis HOU Eveland, Dana TB 9 Tropicana Fi... JE 348 99.5 25.7 58.8 60 0 0 0 348 9
06/11/16 Video N/A Longoria, Evan TB Fiers, Mike HOU 6 Tropicana Fi... 0 0.0 0.0 0.0 0 0 0 0 0 0
06/14/16 Video View Seager, Kyle SEA Odorizzi, Jake TB 2 Tropicana Fi... JE 402 105.1 23.7 102.6 70 0 0 0 401 29
06/14/16 Video View Dickerson, Corey TB Walker, Taijuan SEA 2 Tropicana Fi... ND 442 114.1 27.5 63.8 95 0 0 0 441 30
06/14/16 Video View Pearce, Steve TB Walker, Taijuan SEA 4 Tropicana Fi... PL 381 104.7 36.4 117.3 133 0 1 0 380 30
06/14/16 Video View Longoria, Evan TB Vincent, Nick SEA 7 Tropicana Fi... PL 415 103.8 27.0 99.8 92 0 1 0 415 30
06/16/16 Video View Seager, Kyle SEA Sturdevant, Tyler TB 9 Tropicana Fi... JE 367 95.4 30.9 75.4 92 0 0 0 367 4
06/17/16 Video View Belt, Brandon SF Romero, Enny TB 7 Tropicana Fi... JE 405 102.9 24.4 82.6 76 0 0 0 405 15
06/17/16 Video View Miller, Brad TB Samardzija, Jeff SF 9 Tropicana Fi... JE 414 115.2 18.7 100.3 53 0 0 0 415 28
06/18/16 Video View Longoria, Evan TB Suarez, Albert SF 1 Tropicana Fi... ND 430 112.6 23.3 106.9 73 0 0 0 431 30
06/18/16 Video View Miller, Brad TB Suarez, Albert SF 3 Tropicana Fi... ND 433 110.8 25.7 72.1 86 0 0 0 433 30
06/18/16 Video View Morrison, Logan TB Suarez, Albert SF 4 Tropicana Fi... JE 431 107.0 23.4 94.0 80 0 0 0 430 28
06/18/16 Video View Duffy, Matt SF Moore, Matt TB 2 Tropicana Fi... PL 399 104.3 27.7 111.4 84 0 0 0 399 30
06/18/16 Video View Panik, Joe SF Colome, Alex TB 9 Tropicana Fi... PL 398 101.1 30.0 76.2 101 0 1 0 397 29
06/18/16 Video View Forsythe, Logan TB Gearrin, Cory SF 9 Tropicana Fi... ND 409 111.9 23.6 115.7 66 0 0 0 409 30
06/19/16 Video View Belt, Brandon SF Odorizzi, Jake TB 4 Tropicana Fi... ND 424 110.3 29.7 62.2 101 0 1 0 424 30
06/27/16 Video View Jennings, Desmond TB Rodriguez, Eduardo BOS 3 Tropicana Fi... JE 376 106.7 23.5 118.3 59 0 0 0 375 27
06/27/16 Video View Forsythe, Logan TB Rodriguez, Eduardo BOS 3 Tropicana Fi... ND 420 109.0 29.1 115.4 97 0 0 0 420 30
06/27/16 Video View Franklin, Nick TB Uehara, Koji BOS 7 Tropicana Fi... ND 414 108.6 29.1 61.9 93 0 0 0 414 30
06/27/16 Video View Leon, Sandy BOS Farquhar, Danny TB 8 Tropicana Fi... JE 359 100.0 26.4 61.7 65 0 0 0 358 20
06/28/16 Video View Shaw, Travis BOS Archer, Chris TB 2 Tropicana Fi... ND 453 113.2 23.6 79.1 85 0 1 0 452 30
06/28/16 Video View Miller, Brad TB Tazawa, Junichi BOS 7 Tropicana Fi... JE 420 105.4 22.8 88.7 75 0 0 0 420 25
06/29/16 Video View Guyer, Brandon TB Price, David BOS 2 Tropicana Fi... JE 425 109.2 21.9 97.9 70 0 0 0 425 30
07/01/16 Video View Martinez, Victor DET Farquhar, Danny TB 7 Tropicana Fi... ND 399 111.3 37.1 69.4 166 0 1 0 397 30
07/01/16 Video View Martinez, Victor DET Romero, Enny TB 9 Tropicana Fi... JE 380 97.8 30.1 103.9 94 0 0 0 380 17
07/01/16 Video View Miller, Brad TB Lowe, Mark DET 9 Tropicana Fi... JE 356 95.6 34.3 112.1 104 0 1 0 355 11
07/02/16 Video View Kinsler, Ian DET Snell, Blake TB 5 Tropicana Fi... PL 386 100.2 33.3 106.6 116 0 1 0 385 30
07/03/16 Video View Kinsler, Ian DET Farquhar, Danny TB 9 Tropicana Fi... PL 386 101.7 35.5 104.3 135 0 0 0 386 27
07/04/16 Video View Miller, Brad TB Tropeano, Nick LAA 3 Tropicana Fi... PL 408 101.9 27.9 81.3 94 0 1 0 408 28
07/04/16 Video View Morrison, Logan TB Tropeano, Nick LAA 4 Tropicana Fi... JE 362 95.9 28.6 72.8 79 0 0 0 362 4
07/04/16 Video View Marte, Jefry LAA Moore, Matt TB 6 Tropicana Fi... ND 406 110.1 24.7 117.0 70 0 0 0 406 30
07/05/16 Video View Cron, C.J. LAA Odorizzi, Jake TB 2 Tropicana Fi... JE 420 107.5 21.6 85.3 69 0 0 0 420 23
07/05/16 Video View Morrison, Logan TB Lincecum, Tim LAA 3 Tropicana Fi... PL 410 110.4 21.8 75.2 63 0 0 0 410 29
07/05/16 Video View Cron, C.J. LAA Romero, Enny TB 9 Tropicana Fi... JE 417 103.6 24.6 92.0 83 0 0 0 417 20
07/06/16 Video View Trout, Mike LAA Smyly, Drew TB 5 Tropicana Fi... ND 414 105.2 29.3 106.7 101 0 1 0 414 30
07/06/16 Video View Forsythe, Logan TB Weaver, Jered LAA 6 Tropicana Fi... ND 404 110.5 24.2 117.0 67 0 0 0 404 30
07/07/16 Video View Miller, Brad TB Smith, Joe LAA 8 Tropicana Fi... PL 440 108.7 22.7 88.1 80 0 0 0 439 28
07/15/16 Video View Alvarez, Pedro BAL Archer, Chris TB 3 Tropicana Fi... PL 433 105.2 28.5 92.9 110 0 0 0 433 30
07/15/16 Video View Schoop, Jonathan BAL Archer, Chris TB 8 Tropicana Fi... ND 406 104.8 29.6 110.7 98 0 0 0 406 30
07/16/16 Video View Hardy, J.J. BAL Moore, Matt TB 2 Tropicana Fi... ND 399 110.5 25.0 123.9 67 0 0 0 399 30
07/17/16 Video View Longoria, Evan TB Bundy, Dylan BAL 1 Tropicana Fi... ND 411 105.5 29.8 109.8 102 0 0 0 411 30
07/17/16 Video View Arcia, Oswaldo TB Bundy, Dylan BAL 2 Tropicana Fi... JE 371 102.0 24.2 109.7 63 0 0 0 371 12
07/17/16 Video View Miller, Brad TB Bundy, Dylan BAL 3 Tropicana Fi... PL 373 102.1 28.1 121.7 75 0 0 0 373 30
07/17/16 Video View Alvarez, Pedro BAL Odorizzi, Jake TB 6 Tropicana Fi... PL 382 103.3 25.4 112.1 69 0 0 0 382 28
07/17/16 Video View Longoria, Evan TB Despaigne, Odrisamer BAL 8 Tropicana Fi... PL 450 108.9 29.8 95.3 126 0 0 0 450 30


About HitTracker | Contact Us
© 2006-2016 HitTrackerOnline